createdAt,value
2023-05-08T00:00:51.138Z,12.0790
2023-05-08T00:01:51.772Z,12.1084
2023-05-08T00:02:52.572Z,12.0855
2023-05-08T00:03:53.743Z,12.0467
2023-05-08T00:04:54.713Z,12.0669
2023-05-08T00:05:55.504Z,12.0168
2023-05-08T00:06:56.162Z,12.0155
2023-05-08T00:07:56.866Z,12.0715
2023-05-08T00:08:57.557Z,12.0196
2023-05-08T00:09:58.221Z,12.0458
2023-05-08T00:10:58.881Z,12.1520
2023-05-08T00:11:59.568Z,12.2141
2023-05-08T00:13:00.276Z,12.2155
2023-05-08T00:14:00.887Z,12.2362
2023-05-08T00:15:01.602Z,12.2711
2023-05-08T00:16:02.251Z,12.3313
2023-05-08T00:17:02.975Z,12.2178
2023-05-08T00:18:03.698Z,12.1790
2023-05-08T00:19:04.368Z,12.0421
2023-05-08T00:20:05.017Z,12.0328
2023-05-08T00:21:05.744Z,12.0588
2023-05-08T00:22:06.375Z,12.0930
2023-05-08T00:23:07.112Z,12.2144
2023-05-08T00:24:07.721Z,12.1728
2023-05-08T00:25:08.441Z,12.1259
2023-05-08T00:26:09.121Z,12.0820
2023-05-08T00:27:09.824Z,12.2003
2023-05-08T00:28:10.479Z,12.1632
2023-05-08T00:29:11.243Z,12.0462
2023-05-08T00:30:12.211Z,11.9220
2023-05-08T00:31:13.014Z,11.9571
2023-05-08T00:32:13.710Z,12.1098
2023-05-08T00:33:14.402Z,12.1314
2023-05-08T00:34:14.988Z,12.1304
2023-05-08T00:35:15.741Z,12.0567
2023-05-08T00:36:16.367Z,12.0579
2023-05-08T00:37:17.090Z,12.1715
2023-05-08T00:38:17.805Z,12.1705
2023-05-08T00:39:18.569Z,12.2067
2023-05-08T00:40:19.295Z,12.2834
2023-05-08T00:41:20.021Z,12.2056
2023-05-08T00:42:20.664Z,12.1481
2023-05-08T00:43:22.404Z,12.2217
2023-05-08T00:44:23.025Z,12.1314
2023-05-08T00:45:23.727Z,12.1645
2023-05-08T00:46:24.421Z,12.1685
2023-05-08T00:47:25.110Z,12.2063
2023-05-08T00:48:25.744Z,12.2018
2023-05-08T00:49:26.360Z,12.2791
2023-05-08T00:50:27.065Z,12.3024
2023-05-08T00:51:27.802Z,12.3192
2023-05-08T00:52:28.531Z,12.3001
2023-05-08T00:53:29.392Z,12.3357
2023-05-08T00:54:30.136Z,12.3059
2023-05-08T00:55:30.928Z,12.1872
2023-05-08T00:56:31.716Z,12.2641
2023-05-08T00:57:32.611Z,12.2938
2023-05-08T00:58:33.354Z,12.3302
2023-05-08T00:59:34.197Z,12.3673
2023-05-08T01:00:34.944Z,12.3560
2023-05-08T01:01:35.860Z,12.3557
2023-05-08T01:02:36.545Z,12.3129
2023-05-08T01:03:37.436Z,12.1696
2023-05-08T01:04:38.125Z,12.2485
2023-05-08T01:05:38.768Z,12.3092
2023-05-08T01:06:39.481Z,12.1591
2023-05-08T01:07:40.184Z,11.9836
2023-05-08T01:08:40.874Z,11.8679
2023-05-08T01:09:41.592Z,11.8446
2023-05-08T01:10:42.264Z,11.8660
2023-05-08T01:11:42.974Z,11.9928
2023-05-08T01:12:44.612Z,12.1383
2023-05-08T01:13:45.265Z,12.1925
2023-05-08T01:14:45.885Z,12.1752
2023-05-08T01:15:46.606Z,12.0813
2023-05-08T01:16:47.144Z,11.9971
2023-05-08T01:17:47.838Z,12.0841
2023-05-08T01:18:48.488Z,12.1001
2023-05-08T01:19:49.121Z,12.0875
2023-05-08T01:20:49.724Z,12.0834
2023-05-08T01:21:50.489Z,12.0468
2023-05-08T01:22:51.051Z,12.0482
2023-05-08T01:23:51.674Z,12.1178
2023-05-08T01:24:53.415Z,12.0871
2023-05-08T01:25:54.014Z,11.9983
2023-05-08T01:26:54.765Z,11.9593
2023-05-08T01:27:55.364Z,12.0545
2023-05-08T01:28:56.013Z,12.1882
2023-05-08T01:29:56.718Z,12.2466
2023-05-08T01:30:57.292Z,12.0643
2023-05-08T01:31:58.099Z,12.0403
2023-05-08T01:32:58.736Z,11.9950
2023-05-08T01:34:00.529Z,12.0280
2023-05-08T01:35:01.140Z,12.1279
2023-05-08T01:36:01.792Z,12.1871
2023-05-08T01:37:02.404Z,12.2913
2023-05-08T01:38:03.073Z,12.2383
2023-05-08T01:39:03.694Z,12.1148
2023-05-08T01:40:04.323Z,12.0882
2023-05-08T01:41:04.953Z,12.1238
2023-05-08T01:42:05.541Z,12.0777
2023-05-08T01:43:06.212Z,12.0352
2023-05-08T01:44:06.821Z,12.1034
2023-05-08T01:45:07.490Z,12.1258
2023-05-08T01:46:08.156Z,12.0271
2023-05-08T01:47:08.889Z,12.0913
2023-05-08T01:48:09.621Z,12.1434
2023-05-08T01:49:10.267Z,12.2000
2023-05-08T01:50:11.166Z,12.2652
2023-05-08T01:51:11.996Z,12.2897
2023-05-08T01:52:12.606Z,12.2021
2023-05-08T01:53:13.247Z,12.1067
2023-05-08T01:54:13.868Z,12.1034
2023-05-08T01:55:14.579Z,12.1229
2023-05-08T01:56:15.152Z,12.2270
2023-05-08T01:57:15.804Z,12.3190
2023-05-08T01:58:16.389Z,12.4038
2023-05-08T01:59:17.058Z,12.4096
2023-05-08T02:00:17.655Z,12.4608
2023-05-08T02:01:18.430Z,12.3886
2023-05-08T02:02:19.165Z,12.2688
2023-05-08T02:03:19.840Z,12.2888
2023-05-08T02:04:20.543Z,12.3375
2023-05-08T02:05:21.101Z,12.3987
2023-05-08T02:06:21.718Z,12.4998
2023-05-08T02:07:23.397Z,12.4940
2023-05-08T02:08:23.989Z,12.5281
2023-05-08T02:09:24.778Z,12.3080
2023-05-08T02:10:25.385Z,12.1470
2023-05-08T02:11:26.092Z,12.0335
2023-05-08T02:12:26.705Z,12.0462
2023-05-08T02:13:27.521Z,12.2033
2023-05-08T02:14:28.117Z,12.1566
2023-05-08T02:15:28.718Z,12.0645
2023-05-08T02:16:29.431Z,12.0223
2023-05-08T02:17:30.078Z,12.0391
2023-05-08T02:18:30.744Z,12.0719
2023-05-08T02:19:31.400Z,12.1683
2023-05-08T02:20:32.018Z,12.1468
2023-05-08T02:21:32.680Z,12.1394
2023-05-08T02:22:33.458Z,12.2266
2023-05-08T02:23:34.138Z,12.1789
2023-05-08T02:24:34.814Z,12.1681
2023-05-08T02:25:35.417Z,12.1319
2023-05-08T02:26:36.079Z,12.1512
2023-05-08T02:27:36.662Z,12.1805
2023-05-08T02:28:37.321Z,12.1252
2023-05-08T02:29:38.016Z,12.1074
2023-05-08T02:30:38.660Z,12.1848
2023-05-08T02:31:39.269Z,12.2760
2023-05-08T02:33:01.030Z,12.3644
2023-05-08T02:33:42.214Z,12.3225
2023-05-08T02:34:51.207Z,12.2666
2023-05-08T02:35:42.904Z,12.2486
2023-05-08T02:36:43.523Z,12.2856
2023-05-08T02:37:44.188Z,12.1615
2023-05-08T02:38:44.783Z,12.0745
2023-05-08T02:39:45.463Z,11.9784
2023-05-08T02:40:46.084Z,11.9145
2023-05-08T02:41:46.769Z,11.9606
2023-05-08T02:42:47.350Z,12.0487
2023-05-08T02:43:48.050Z,11.9686
2023-05-08T02:44:48.648Z,12.0217
2023-05-08T02:45:49.329Z,12.0552
2023-05-08T02:46:49.962Z,11.9594
2023-05-08T02:47:50.686Z,11.9139
2023-05-08T02:48:51.323Z,11.9198
2023-05-08T02:49:51.933Z,11.9347
2023-05-08T02:50:52.568Z,11.9663
2023-05-08T02:51:53.157Z,12.0488
2023-05-08T02:52:53.794Z,12.0106
2023-05-08T02:53:54.422Z,11.9594
2023-05-08T02:54:55.061Z,11.9291
2023-05-08T02:55:55.678Z,11.8804
2023-05-08T02:56:56.241Z,11.8415
2023-05-08T02:57:56.887Z,11.8669
2023-05-08T02:58:57.507Z,11.8573
2023-05-08T02:59:58.229Z,11.9746
2023-05-08T03:00:58.905Z,12.0132
2023-05-08T03:01:59.506Z,12.0869
2023-05-08T03:03:00.373Z,12.1148
2023-05-08T03:04:01.064Z,12.1266
2023-05-08T03:05:01.752Z,12.0295
2023-05-08T03:06:02.387Z,12.0349
2023-05-08T03:07:03.081Z,12.0984
2023-05-08T03:08:03.750Z,12.1241
2023-05-08T03:09:04.445Z,12.1636
2023-05-08T03:10:05.056Z,12.1746
2023-05-08T03:11:05.772Z,12.1135
2023-05-08T03:12:06.401Z,12.0742
2023-05-08T03:13:07.139Z,12.1198
2023-05-08T03:14:07.816Z,12.1058
2023-05-08T03:15:08.467Z,12.1137
2023-05-08T03:16:09.149Z,12.1408
2023-05-08T03:17:09.783Z,12.1608
2023-05-08T03:18:10.484Z,12.0983
2023-05-08T03:19:11.168Z,12.1238
2023-05-08T03:20:12.052Z,12.1198
2023-05-08T03:21:12.884Z,12.1032
2023-05-08T03:22:13.495Z,12.1897
2023-05-08T03:23:14.235Z,12.1499
2023-05-08T03:24:14.858Z,12.2436
2023-05-08T03:25:15.561Z,12.2025
2023-05-08T03:26:16.238Z,12.2901
2023-05-08T03:27:16.933Z,12.3738
2023-05-08T03:28:17.576Z,12.4691
2023-05-08T03:29:18.296Z,12.4359
2023-05-08T03:30:18.943Z,12.4198
2023-05-08T03:31:19.701Z,12.4307
2023-05-08T03:32:20.300Z,12.4541
2023-05-08T03:33:21.023Z,12.4358
2023-05-08T03:34:21.689Z,12.4220
2023-05-08T03:35:22.418Z,12.2070
2023-05-08T03:36:23.064Z,12.2438
2023-05-08T03:37:23.693Z,12.3843
2023-05-08T03:38:24.377Z,12.4864
2023-05-08T03:39:25.097Z,12.4925
2023-05-08T03:40:26.123Z,12.4257
2023-05-08T03:41:26.816Z,12.4862
2023-05-08T03:42:27.452Z,12.5708
2023-05-08T03:43:28.176Z,12.6246
2023-05-08T03:44:28.819Z,12.7019
2023-05-08T03:45:29.510Z,12.8089
2023-05-08T03:46:30.174Z,12.8513
2023-05-08T03:47:30.900Z,12.7357
2023-05-08T03:48:31.505Z,12.6688
2023-05-08T03:49:32.223Z,12.7844
2023-05-08T03:50:32.859Z,12.8636
2023-05-08T03:51:33.558Z,12.5793
2023-05-08T03:52:34.256Z,12.2967
2023-05-08T03:53:34.910Z,12.2623
2023-05-08T03:54:35.651Z,12.3230
2023-05-08T03:55:36.323Z,12.3195
2023-05-08T03:56:37.032Z,12.3276
2023-05-08T03:57:37.768Z,12.2545
2023-05-08T03:58:38.421Z,12.2701
2023-05-08T03:59:39.047Z,12.2738
2023-05-08T04:00:39.731Z,12.3872
2023-05-08T04:01:40.414Z,12.5737
2023-05-08T04:02:42.279Z,12.6351
2023-05-08T04:03:43.265Z,12.6518
2023-05-08T04:04:44.014Z,12.6811
2023-05-08T04:05:44.660Z,12.7021
2023-05-08T04:08:49.732Z,12.5321
2023-05-08T04:08:49.732Z,12.2709
2023-05-08T04:08:49.732Z,12.0857
2023-05-08T04:09:50.349Z,12.0870
2023-05-08T04:10:51.065Z,12.1223
2023-05-08T04:11:51.713Z,12.2214
2023-05-08T04:12:52.477Z,12.1109
2023-05-08T04:13:53.127Z,11.9723
2023-05-08T04:15:04.753Z,11.8583
2023-05-08T04:15:55.685Z,11.8400
2023-05-08T04:16:56.439Z,11.9929
2023-05-08T04:17:57.115Z,12.1300
2023-05-08T04:18:57.947Z,12.1877
2023-05-08T04:19:58.582Z,12.1816
2023-05-08T04:21:00.292Z,12.3113
2023-05-08T04:22:01.112Z,12.4106
2023-05-08T04:23:01.800Z,12.3657
2023-05-08T04:24:02.514Z,12.3457
2023-05-08T04:25:03.146Z,12.1886
2023-05-08T04:26:05.541Z,12.0739
2023-05-08T04:27:06.250Z,12.0984
2023-05-08T04:28:07.000Z,12.1790
2023-05-08T04:29:07.626Z,12.1645
2023-05-08T04:30:08.360Z,12.1648
2023-05-08T04:31:09.052Z,12.2255
2023-05-08T04:32:09.804Z,12.2538
2023-05-08T04:33:10.555Z,12.2921
2023-05-08T04:34:11.177Z,12.3764
2023-05-08T04:35:12.045Z,12.4440
2023-05-08T04:36:12.812Z,12.4284
2023-05-08T04:37:13.518Z,12.4708
2023-05-08T04:38:14.137Z,12.5304
2023-05-08T04:39:14.888Z,12.3457
2023-05-08T04:40:15.537Z,12.2221
2023-05-08T04:41:16.360Z,12.3287
2023-05-08T04:42:16.987Z,12.3647
2023-05-08T04:43:17.710Z,12.3103
2023-05-08T04:44:18.415Z,12.2633
2023-05-08T04:45:19.163Z,12.3715
2023-05-08T04:46:19.911Z,12.3211
2023-05-08T04:47:20.651Z,12.4065
2023-05-08T04:48:21.361Z,12.4808
2023-05-08T04:49:22.031Z,12.4848
2023-05-08T04:50:22.762Z,12.4799
2023-05-08T04:51:23.452Z,12.5535
2023-05-08T04:52:24.163Z,12.5245
2023-05-08T04:53:24.879Z,12.4900
2023-05-08T04:54:25.648Z,12.5067
2023-05-08T04:55:26.224Z,12.4858
2023-05-08T04:56:26.924Z,12.4623
2023-05-08T04:57:27.602Z,12.4207
2023-05-08T04:58:28.221Z,12.3310
2023-05-08T04:59:28.966Z,12.2868
2023-05-08T05:00:29.617Z,12.2605
2023-05-08T05:01:30.414Z,12.3589
2023-05-08T05:02:33.177Z,12.3089
2023-05-08T05:03:33.881Z,12.3554
2023-05-08T05:04:34.516Z,12.3695
2023-05-08T05:05:36.426Z,12.3918
2023-05-08T05:06:35.713Z,12.3332
2023-05-08T05:07:36.349Z,12.3596
2023-05-08T05:08:37.031Z,12.4878
2023-05-08T05:09:37.811Z,12.4630
2023-05-08T05:10:38.452Z,12.3699
2023-05-08T05:11:39.170Z,12.3400
2023-05-08T05:12:39.839Z,12.2742
2023-05-08T05:13:40.505Z,12.3885
2023-05-08T05:14:41.211Z,12.4549
2023-05-08T05:15:42.017Z,12.5025
2023-05-08T05:16:42.669Z,12.4896
2023-05-08T05:17:43.341Z,12.4094
2023-05-08T05:18:44.138Z,12.3289
2023-05-08T05:19:44.867Z,12.3299
2023-05-08T05:20:45.513Z,12.3272
2023-05-08T05:21:46.156Z,12.3882
2023-05-08T05:22:46.957Z,12.5450
2023-05-08T05:23:47.595Z,12.5433
2023-05-08T05:24:48.226Z,12.4932
2023-05-08T05:25:48.898Z,12.4459
2023-05-08T05:26:49.581Z,12.4303
2023-05-08T05:27:50.266Z,12.3735
2023-05-08T05:28:50.884Z,12.4384
2023-05-08T05:29:51.611Z,12.5648
2023-05-08T05:30:52.328Z,12.5986
2023-05-08T05:31:53.032Z,12.4969
2023-05-08T05:32:54.145Z,12.4768
2023-05-08T05:33:54.811Z,12.5932
2023-05-08T05:34:55.444Z,12.5648
2023-05-08T05:35:56.142Z,12.4915
2023-05-08T05:36:56.794Z,12.4924
2023-05-08T05:37:57.509Z,12.5268
2023-05-08T05:38:58.128Z,12.6066
2023-05-08T05:39:58.917Z,12.6148
2023-05-08T05:40:59.621Z,12.6492
2023-05-08T05:42:00.240Z,12.7622
2023-05-08T05:43:00.954Z,12.6221
2023-05-08T05:44:01.597Z,12.6063
2023-05-08T05:45:02.331Z,12.7159
2023-05-08T05:46:03.182Z,12.6831
2023-05-08T05:47:04.008Z,12.6878
2023-05-08T05:48:04.635Z,12.5793
2023-05-08T05:49:05.335Z,12.5331
2023-05-08T05:50:05.978Z,12.4424
2023-05-08T05:51:06.642Z,12.4896
2023-05-08T05:52:07.287Z,12.5508
2023-05-08T05:53:08.025Z,12.4719
2023-05-08T05:54:08.724Z,12.4906
2023-05-08T05:55:09.420Z,12.5070
2023-05-08T05:56:10.087Z,12.5459
2023-05-08T05:57:10.720Z,12.5547
2023-05-08T05:58:11.375Z,12.5558
2023-05-08T05:59:12.057Z,12.6695
2023-05-08T06:00:12.714Z,12.6961
2023-05-08T06:01:13.417Z,12.6909
2023-05-08T06:02:14.161Z,12.6429
2023-05-08T06:03:14.871Z,12.6313
2023-05-08T06:04:15.540Z,12.6540
2023-05-08T06:05:16.128Z,12.6476
2023-05-08T06:06:16.874Z,12.6374
2023-05-08T06:07:17.506Z,12.6260
2023-05-08T06:08:18.180Z,12.4727
2023-05-08T06:09:18.886Z,12.5143
2023-05-08T06:10:19.552Z,12.5830
2023-05-08T06:11:20.225Z,12.6253
2023-05-08T06:12:20.897Z,12.5736
2023-05-08T06:13:21.594Z,12.6763
2023-05-08T06:14:22.260Z,12.7582
2023-05-08T06:15:22.948Z,12.6937
2023-05-08T06:16:23.702Z,12.6827
2023-05-08T06:17:24.273Z,12.7489
2023-05-08T06:18:24.966Z,12.7472
2023-05-08T06:19:26.581Z,12.7112
2023-05-08T06:20:27.278Z,12.6371
2023-05-08T06:21:27.977Z,12.5447
2023-05-08T06:22:29.678Z,12.5191
2023-05-08T06:23:30.437Z,12.5767
2023-05-08T06:24:31.116Z,12.6327
2023-05-08T06:25:31.856Z,12.6500
2023-05-08T06:26:32.575Z,12.6158
2023-05-08T06:27:33.235Z,12.6876
2023-05-08T06:28:33.890Z,12.7735
2023-05-08T06:29:34.629Z,12.8376
2023-05-08T06:30:35.292Z,12.9532
2023-05-08T06:31:36.279Z,12.9091
2023-05-08T06:32:36.984Z,12.8710
2023-05-08T06:33:37.708Z,12.9245
2023-05-08T06:34:38.349Z,13.0222
2023-05-08T06:35:39.016Z,13.1209
2023-05-08T06:36:39.783Z,13.1170
2023-05-08T06:37:40.418Z,13.0397
2023-05-08T06:38:41.084Z,12.9710
2023-05-08T06:39:41.715Z,13.0137
2023-05-08T06:40:42.435Z,12.9974
2023-05-08T06:41:43.131Z,12.7108
2023-05-08T06:42:43.770Z,12.7669
2023-05-08T06:43:44.499Z,12.9039
2023-05-08T06:44:45.200Z,12.8042
2023-05-08T06:45:45.852Z,12.7834
2023-05-08T06:46:46.584Z,12.8048
2023-05-08T06:47:47.230Z,12.8370
2023-05-08T06:48:47.908Z,12.8029
2023-05-08T06:49:48.612Z,12.8739
2023-05-08T06:50:49.291Z,12.9044
2023-05-08T06:51:49.934Z,12.9824
2023-05-08T06:52:50.706Z,13.0529
2023-05-08T06:53:51.351Z,12.9524
2023-05-08T06:54:52.037Z,12.8139
2023-05-08T06:55:52.742Z,12.8173
2023-05-08T06:56:54.344Z,12.8275
2023-05-08T06:57:55.083Z,12.8906
2023-05-08T06:59:07.198Z,12.7924
2023-05-08T06:59:55.800Z,12.7829
2023-05-08T07:00:56.435Z,12.9289
2023-05-08T07:01:57.215Z,12.9906
2023-05-08T07:02:57.951Z,13.0183
2023-05-08T07:03:58.550Z,13.0307
2023-05-08T07:04:59.314Z,13.0619
2023-05-08T07:05:59.967Z,13.2457
2023-05-08T07:07:00.589Z,13.2699
2023-05-08T07:08:01.282Z,13.2294
2023-05-08T07:09:01.977Z,13.2740
2023-05-08T07:10:02.718Z,13.3170
2023-05-08T07:11:03.393Z,13.3333
2023-05-08T07:12:04.087Z,13.3666
2023-05-08T07:13:04.706Z,13.2866
2023-05-08T07:14:05.324Z,13.3073
2023-05-08T07:15:17.707Z,13.1436
2023-05-08T07:16:06.212Z,13.0800
2023-05-08T07:17:06.865Z,13.0088
2023-05-08T07:18:07.549Z,12.9781
2023-05-08T07:19:08.140Z,12.9810
2023-05-08T07:20:08.866Z,13.0113
2023-05-08T07:21:09.481Z,13.0707
2023-05-08T07:22:10.236Z,13.1167
2023-05-08T07:23:10.849Z,13.1306
2023-05-08T07:24:11.491Z,13.1659
2023-05-08T07:25:12.368Z,13.1249
2023-05-08T07:26:13.240Z,13.2525
2023-05-08T07:27:13.915Z,13.2420
2023-05-08T07:28:14.552Z,13.2707
2023-05-08T07:29:15.242Z,13.3155
2023-05-08T07:30:15.884Z,13.1592
2023-05-08T07:31:16.566Z,13.1320
2023-05-08T07:32:17.265Z,13.1818
2023-05-08T07:33:17.953Z,13.2302
2023-05-08T07:34:18.701Z,13.2193
2023-05-08T07:35:19.340Z,13.3373
2023-05-08T07:36:20.010Z,13.3992
2023-05-08T07:37:20.721Z,13.3457
2023-05-08T07:38:21.396Z,13.2121
2023-05-08T07:39:22.030Z,13.3510
2023-05-08T07:40:22.715Z,13.4700
2023-05-08T07:41:23.433Z,13.5343
2023-05-08T07:42:24.108Z,13.5447
2023-05-08T07:43:24.937Z,13.5620
2023-05-08T07:44:25.601Z,13.5859
2023-05-08T07:45:26.276Z,13.6587
2023-05-08T07:46:27.003Z,13.6002
2023-05-08T07:47:27.695Z,13.5349
2023-05-08T07:48:28.314Z,13.6380
2023-05-08T07:49:28.946Z,13.6075
2023-05-08T07:50:29.610Z,13.6480
2023-05-08T07:51:30.226Z,13.6479
2023-05-08T07:52:30.875Z,13.6467
2023-05-08T07:53:31.513Z,13.6624
2023-05-08T07:54:32.126Z,13.7060
2023-05-08T07:55:32.787Z,13.6808
2023-05-08T07:56:33.468Z,13.7384
2023-05-08T07:57:34.093Z,13.6460
2023-05-08T07:58:34.732Z,13.5940
2023-05-08T07:59:35.416Z,13.7026
2023-05-08T08:00:36.064Z,13.7158
2023-05-08T08:01:36.772Z,13.5201
2023-05-08T08:02:37.521Z,13.5772
2023-05-08T08:03:39.185Z,13.5642
2023-05-08T08:04:40.024Z,13.6505
2023-05-08T08:05:40.601Z,13.7328
2023-05-08T08:06:41.232Z,13.8371
2023-05-08T08:07:41.946Z,13.7547
2023-05-08T08:08:42.611Z,13.6650
2023-05-08T08:09:43.338Z,13.7181
2023-05-08T08:10:43.994Z,13.9120
2023-05-08T08:11:44.760Z,14.0948
2023-05-08T08:12:45.422Z,14.0663
2023-05-08T08:13:46.069Z,13.9551
2023-05-08T08:14:46.692Z,13.8676
2023-05-08T08:15:47.401Z,13.8783
2023-05-08T08:16:48.204Z,13.8764
2023-05-08T08:17:48.994Z,13.9918
2023-05-08T08:18:49.691Z,14.0707
2023-05-08T08:19:50.378Z,14.1025
2023-05-08T08:20:51.039Z,14.1571
2023-05-08T08:21:51.698Z,14.0137
2023-05-08T08:22:52.330Z,14.0032
2023-05-08T08:23:53.024Z,13.9226
2023-05-08T08:24:55.334Z,14.0235
2023-05-08T08:25:56.203Z,13.9977
2023-05-08T08:26:57.008Z,14.0718
2023-05-08T08:27:57.556Z,14.1751
2023-05-08T08:28:58.178Z,14.1455
2023-05-08T08:30:12.163Z,14.2755
2023-05-08T08:30:58.922Z,14.3354
2023-05-08T08:31:59.532Z,14.4822
2023-05-08T08:33:00.250Z,14.5512
2023-05-08T08:34:00.792Z,14.3919
2023-05-08T08:35:01.428Z,14.4178
2023-05-08T08:36:02.066Z,14.4847
2023-05-08T08:37:02.693Z,14.4951
2023-05-08T08:38:03.347Z,14.3614
2023-05-08T08:39:04.012Z,14.4572
2023-05-08T08:40:04.736Z,14.6649
2023-05-08T08:41:05.310Z,14.7370
2023-05-08T08:42:06.354Z,14.7790
2023-05-08T08:43:06.892Z,14.9452
2023-05-08T08:44:07.515Z,15.0326
2023-05-08T08:45:08.171Z,15.0656
2023-05-08T08:46:08.806Z,15.1753
2023-05-08T08:47:09.550Z,15.1784
2023-05-08T08:48:10.209Z,15.0899
2023-05-08T08:49:10.793Z,15.2399
2023-05-08T08:50:14.183Z,15.4012
2023-05-08T08:51:11.952Z,15.4307
2023-05-08T08:52:12.652Z,15.5105
2023-05-08T08:53:13.291Z,15.5910
2023-05-08T08:54:13.936Z,15.4745
2023-05-08T08:55:14.730Z,15.2054
2023-05-08T08:56:15.542Z,15.0651
2023-05-08T08:57:16.233Z,15.1650
2023-05-08T08:58:16.777Z,15.2878
2023-05-08T08:59:17.418Z,15.4147
2023-05-08T09:00:18.053Z,15.4340
2023-05-08T09:01:18.755Z,15.4060
2023-05-08T09:02:19.392Z,15.5466
2023-05-08T09:03:20.171Z,15.4487
2023-05-08T09:04:21.830Z,15.3345
2023-05-08T09:05:22.487Z,15.4274
2023-05-08T09:06:23.110Z,15.6178
2023-05-08T09:07:23.764Z,15.6720
2023-05-08T09:08:24.544Z,15.4872
2023-05-08T09:09:25.207Z,15.5408
2023-05-08T09:10:25.925Z,15.7153
2023-05-08T09:11:26.527Z,15.8146
2023-05-08T09:12:27.238Z,15.8648
2023-05-08T09:13:27.827Z,16.0470
2023-05-08T09:14:28.399Z,15.9906
2023-05-08T09:15:29.027Z,16.0134
2023-05-08T09:16:29.807Z,15.7470
2023-05-08T09:17:30.403Z,15.4090
2023-05-08T09:18:31.128Z,15.1423
2023-05-08T09:19:31.710Z,15.1335
2023-05-08T09:20:32.422Z,15.2409
2023-05-08T09:21:33.060Z,15.3681
2023-05-08T09:22:33.701Z,15.5329
2023-05-08T09:23:34.308Z,15.5691
2023-05-08T09:24:34.976Z,15.6379
2023-05-08T09:25:35.636Z,15.7166
2023-05-08T09:26:36.262Z,15.7764
2023-05-08T09:27:36.937Z,15.7221
2023-05-08T09:28:37.480Z,15.7327
2023-05-08T09:29:38.159Z,15.8574
2023-05-08T09:30:38.762Z,15.9195
2023-05-08T09:31:39.363Z,15.9907
2023-05-08T09:32:40.194Z,16.0101
2023-05-08T09:33:40.837Z,16.1102
2023-05-08T09:34:41.455Z,16.2550
2023-05-08T09:35:42.038Z,16.2280
2023-05-08T09:36:42.668Z,16.2977
2023-05-08T09:37:43.424Z,16.3324
2023-05-08T09:38:44.110Z,16.4413
2023-05-08T09:39:44.749Z,16.4960
2023-05-08T09:40:45.342Z,16.4637
2023-05-08T09:41:46.006Z,16.4777
2023-05-08T09:42:46.680Z,16.4235
2023-05-08T09:43:47.230Z,16.3956
2023-05-08T09:44:48.943Z,16.4385
2023-05-08T09:45:49.575Z,16.4520
2023-05-08T09:46:50.230Z,16.3118
2023-05-08T09:47:50.832Z,16.2171
2023-05-08T09:48:52.522Z,16.1221
2023-05-08T09:49:53.178Z,16.0285
2023-05-08T09:50:53.789Z,15.8946
2023-05-08T09:51:54.494Z,15.7718
2023-05-08T09:52:55.168Z,15.6935
2023-05-08T09:53:55.780Z,15.7619
2023-05-08T09:54:56.436Z,15.7119
2023-05-08T09:55:57.107Z,15.6407
2023-05-08T09:56:57.823Z,15.5703
2023-05-08T09:57:58.635Z,15.5365
2023-05-08T09:58:59.199Z,15.4259
2023-05-08T09:59:59.862Z,15.3676
2023-05-08T10:01:00.574Z,15.3036
2023-05-08T10:02:01.182Z,15.2127
2023-05-08T10:03:01.814Z,15.2708
2023-05-08T10:04:02.458Z,15.3435
2023-05-08T10:05:03.105Z,15.2172
2023-05-08T10:06:03.711Z,15.0898
2023-05-08T10:07:04.369Z,15.0345
2023-05-08T10:08:04.974Z,15.0395
2023-05-08T10:09:05.628Z,15.1143
2023-05-08T10:10:06.316Z,15.1919
2023-05-08T10:11:07.074Z,15.2428
2023-05-08T10:12:07.804Z,15.1434
2023-05-08T10:13:09.583Z,15.0421
2023-05-08T10:14:10.324Z,15.0416
2023-05-08T10:15:11.036Z,14.8782
2023-05-08T10:16:11.750Z,14.8814
2023-05-08T10:17:13.518Z,14.6339
2023-05-08T10:18:14.273Z,14.4371
2023-05-08T10:19:14.980Z,14.4941
2023-05-08T10:20:15.871Z,14.4478
2023-05-08T10:21:16.584Z,14.3974
2023-05-08T10:22:17.298Z,14.4414
2023-05-08T10:23:17.983Z,14.6258
2023-05-08T10:24:18.578Z,14.7965
2023-05-08T10:25:19.247Z,14.7315
2023-05-08T10:26:19.876Z,14.5697
2023-05-08T10:27:20.532Z,14.6790
2023-05-08T10:28:21.270Z,14.7362
2023-05-08T10:29:22.840Z,14.8218
2023-05-08T10:30:23.586Z,14.9194
2023-05-08T10:31:24.346Z,15.1153
2023-05-08T10:32:25.165Z,15.2122
2023-05-08T10:33:25.875Z,15.2518
2023-05-08T10:34:26.530Z,15.0767
2023-05-08T10:35:27.176Z,15.1456
2023-05-08T10:36:29.043Z,15.2577
2023-05-08T10:37:28.284Z,15.2769
2023-05-08T10:38:28.965Z,15.2925
2023-05-08T10:39:29.604Z,15.4075
2023-05-08T10:40:30.286Z,15.3971
2023-05-08T10:41:31.042Z,15.3769
2023-05-08T10:42:31.740Z,15.3148
2023-05-08T10:43:32.483Z,15.2933
2023-05-08T10:44:33.084Z,15.4114
2023-05-08T10:45:33.797Z,15.4741
2023-05-08T10:46:34.520Z,15.4584
2023-05-08T10:47:35.211Z,15.4552
2023-05-08T10:48:35.965Z,15.3749
2023-05-08T10:49:36.688Z,15.6567
2023-05-08T10:50:37.348Z,15.8967
2023-05-08T10:51:38.119Z,15.9954
2023-05-08T10:52:38.803Z,16.0616
2023-05-08T10:53:39.448Z,16.2159
2023-05-08T10:54:40.156Z,16.2064
2023-05-08T10:55:40.858Z,16.1041
2023-05-08T10:56:41.490Z,16.0270
2023-05-08T10:57:42.228Z,16.0938
2023-05-08T10:58:42.932Z,16.0217
2023-05-08T10:59:43.558Z,15.9008
2023-05-08T11:00:44.286Z,15.9395
2023-05-08T11:01:44.966Z,15.9372
2023-05-08T11:02:45.759Z,15.9995
2023-05-08T11:03:46.582Z,16.0597
2023-05-08T11:04:48.364Z,15.9545
2023-05-08T11:05:49.031Z,16.0241
2023-05-08T11:06:49.773Z,15.9553
2023-05-08T11:07:50.511Z,15.8621
2023-05-08T11:08:51.254Z,15.8072
2023-05-08T11:09:51.993Z,15.7892
2023-05-08T11:10:52.718Z,15.8177
2023-05-08T11:11:53.394Z,15.8612
2023-05-08T11:12:54.227Z,15.9308
2023-05-08T11:13:54.865Z,15.9443
2023-05-08T11:14:55.618Z,15.9658
2023-05-08T11:15:56.443Z,15.9874
2023-05-08T11:16:57.055Z,16.2009
2023-05-08T11:17:57.869Z,16.3931
2023-05-08T11:18:58.570Z,16.5385
2023-05-08T11:19:59.357Z,16.5464
2023-05-08T11:21:00.133Z,16.5167
2023-05-08T11:22:00.770Z,16.5057
2023-05-08T11:23:01.501Z,16.4736
2023-05-08T11:24:02.290Z,16.6474
2023-05-08T11:25:02.964Z,16.8661
2023-05-08T11:26:03.738Z,17.0705
2023-05-08T11:27:04.461Z,17.0935
2023-05-08T11:28:05.186Z,16.8414
2023-05-08T11:29:05.927Z,16.8524
2023-05-08T11:30:06.582Z,17.1164
2023-05-08T11:31:07.436Z,17.3786
2023-05-08T11:32:08.152Z,17.5340
2023-05-08T11:33:08.920Z,17.4698
2023-05-08T11:34:09.715Z,17.5116
2023-05-08T11:35:12.108Z,17.2413
2023-05-08T11:36:12.832Z,17.0568
2023-05-08T11:37:13.968Z,16.9634
2023-05-08T11:38:14.721Z,16.9773
2023-05-08T11:39:15.583Z,17.2073
2023-05-08T11:40:16.376Z,17.2352
2023-05-08T11:41:17.036Z,17.0436
2023-05-08T11:42:17.634Z,16.9726
2023-05-08T11:43:18.435Z,17.2260
2023-05-08T11:44:19.221Z,17.4605
2023-05-08T11:45:19.848Z,17.6603
2023-05-08T11:46:20.608Z,17.7386
2023-05-08T11:47:21.421Z,17.9336
2023-05-08T11:48:22.122Z,17.9121
2023-05-08T11:49:26.942Z,18.0051
2023-05-08T11:50:22.958Z,18.1991
2023-05-08T11:51:23.721Z,18.3736
2023-05-08T11:52:24.402Z,18.3602
2023-05-08T11:53:25.162Z,18.4791
2023-05-08T11:54:25.855Z,18.6299
2023-05-08T11:55:26.574Z,18.6637
2023-05-08T11:56:27.202Z,18.9086
2023-05-08T11:57:27.855Z,19.0218
2023-05-08T11:58:28.565Z,19.0582
2023-05-08T11:59:29.219Z,19.0936
2023-05-08T12:00:30.041Z,19.0841
2023-05-08T12:01:30.768Z,18.6918
2023-05-08T12:02:33.342Z,18.6536
2023-05-08T12:03:34.729Z,18.6922
2023-05-08T12:04:35.731Z,18.2481
2023-05-08T12:05:37.334Z,18.2677
2023-05-08T12:06:38.004Z,18.4141
2023-05-08T12:07:38.731Z,18.4203
2023-05-08T12:08:39.377Z,18.2470
2023-05-08T12:09:40.141Z,18.1777
2023-05-08T12:10:40.740Z,18.0226
2023-05-08T12:11:41.584Z,17.8256
2023-05-08T12:12:42.309Z,17.8771
2023-05-08T12:13:43.940Z,17.7390
2023-05-08T12:14:44.637Z,17.7868